Time;durP1;ratioP1;P1;durP2;ratioP2;P2;SDS_P1;SDS_P2;PMS_P1;PMS_P2;Temp;Humidity;BMP_temperature;BMP_pressure;BME280_temperature;BME280_humidity;BME280_pressure;Samples;Min_cycle;Max_cycle;Signal;HPM_P1;HPM_P2
2021/09/02 00:01:20;;;;;;;2.80;2.60;;;13.10;99.90;;;;;;5040756;28;20293;-76
2021/09/02 00:03:45;;;;;;;2.80;2.60;;;13.10;99.90;;;;;;5040972;28;20199;-77
2021/09/02 00:06:11;;;;;;;3.43;2.77;;;13.00;99.90;;;;;;5041418;28;20925;-78
2021/09/02 00:08:37;;;;;;;2.50;1.90;;;13.00;99.90;;;;;;5041266;28;20214;-77
2021/09/02 00:11:02;;;;;;;2.60;2.40;;;13.10;99.90;;;;;;5040318;28;20167;-77
2021/09/02 00:13:28;;;;;;;8.23;1.50;;;13.00;99.90;;;;;;5040185;28;20167;-78
2021/09/02 00:15:53;;;;;;;0.70;0.70;;;13.00;99.90;;;;;;5039938;28;20197;-77
2021/09/02 00:18:19;;;;;;;2.57;2.23;;;13.00;99.90;;;;;;5041227;28;20191;-77
2021/09/02 00:20:44;;;;;;;1.43;1.33;;;12.90;99.90;;;;;;5040070;28;20249;-76
2021/09/02 00:23:10;;;;;;;2.80;1.30;;;12.90;99.90;;;;;;5031791;28;20187;-76
2021/09/02 00:25:35;;;;;;;1.73;1.63;;;12.90;99.90;;;;;;5032198;28;20168;-76
2021/09/02 00:28:02;;;;;;;2.60;1.93;;;12.80;99.90;;;;;;5030732;28;20234;-75
2021/09/02 00:30:28;;;;;;;2.90;1.90;;;12.90;99.90;;;;;;5030709;28;20544;-76
2021/09/02 00:32:53;;;;;;;4.27;1.67;;;12.80;99.90;;;;;;5014678;28;20426;-76
2021/09/02 00:35:19;;;;;;;1.80;1.63;;;12.90;99.90;;;;;;5022787;28;20205;-76
2021/09/02 00:37:44;;;;;;;1.47;1.37;;;12.90;99.90;;;;;;5032632;28;20194;-76
2021/09/02 00:40:10;;;;;;;1.17;1.07;;;12.90;99.90;;;;;;5032126;28;20194;-76
2021/09/02 00:42:36;;;;;;;2.30;1.57;;;12.80;99.90;;;;;;5032057;28;20244;-76
2021/09/02 00:45:02;;;;;;;0.80;0.80;;;12.80;99.90;;;;;;5031488;28;20194;-76
2021/09/02 00:47:27;;;;;;;2.60;0.93;;;12.70;99.90;;;;;;5031871;28;20168;-76
2021/09/02 00:49:53;;;;;;;2.03;1.63;;;12.80;99.90;;;;;;5030571;28;20572;-76
2021/09/02 00:52:20;;;;;;;2.27;2.10;;;12.70;99.90;;;;;;5031882;28;20195;-76
2021/09/02 00:54:47;;;;;;;1.57;1.37;;;12.80;99.90;;;;;;5030464;28;20430;-76
2021/09/02 00:57:18;;;;;;;0.90;0.90;;;12.80;99.90;;;;;;5031771;28;20437;-76
2021/09/02 00:59:46;;;;;;;3.20;2.90;;;12.80;99.90;;;;;;5031810;28;20950;-75
2021/09/02 01:02:11;;;;;;;0.80;0.73;;;12.90;99.90;;;;;;5031671;28;20452;-75
2021/09/02 01:04:37;;;;;;;1.23;1.13;;;12.80;99.90;;;;;;5030738;28;20955;-76
2021/09/02 01:07:04;;;;;;;6.43;4.00;;;12.80;99.90;;;;;;5031473;28;20234;-76
2021/09/02 01:09:32;;;;;;;0.80;0.80;;;12.80;99.90;;;;;;5031693;28;20235;-76
2021/09/02 01:11:57;;;;;;;0.80;0.70;;;12.80;99.90;;;;;;5033423;28;20937;-76
2021/09/02 01:14:23;;;;;;;1.30;1.13;;;12.90;99.90;;;;;;5035496;28;20497;-76
2021/09/02 01:16:51;;;;;;;1.23;0.83;;;12.90;99.90;;;;;;5035236;28;20174;-76
2021/09/02 01:19:18;;;;;;;5.63;1.63;;;12.90;99.90;;;;;;5035357;28;20191;-75
2021/09/02 01:21:45;;;;;;;2.17;1.00;;;12.90;99.90;;;;;;5035408;28;20471;-76
2021/09/02 01:24:12;;;;;;;2.23;2.10;;;13.00;99.90;;;;;;5035187;28;20442;-76
2021/09/02 01:26:38;;;;;;;1.13;0.70;;;13.00;99.90;;;;;;5033874;28;20460;-77
2021/09/02 01:29:04;;;;;;;2.30;2.10;;;13.00;99.90;;;;;;5039301;28;20434;-77
2021/09/02 01:31:29;;;;;;;3.63;1.43;;;13.00;99.90;;;;;;5040617;28;20208;-78
2021/09/02 01:33:55;;;;;;;3.90;1.57;;;13.10;99.90;;;;;;5039828;28;21061;-77
2021/09/02 01:36:21;;;;;;;2.70;1.70;;;13.10;99.90;;;;;;5034831;28;20179;-76
2021/09/02 01:38:46;;;;;;;0.80;0.70;;;13.20;99.90;;;;;;5035210;28;20624;-76
2021/09/02 01:41:12;;;;;;;1.40;1.30;;;13.20;99.90;;;;;;5038523;28;20186;-77
2021/09/02 01:43:37;;;;;;;1.10;1.00;;;13.20;99.90;;;;;;5036361;28;20736;-76
2021/09/02 01:46:03;;;;;;;0.97;0.90;;;13.30;99.90;;;;;;5035039;28;20640;-76
2021/09/02 01:48:33;;;;;;;1.73;1.63;;;13.30;99.90;;;;;;5035819;28;20187;-76
2021/09/02 01:50:59;;;;;;;6.90;3.40;;;13.40;99.90;;;;;;5035792;28;20493;-76
2021/09/02 01:53:25;;;;;;;5.77;3.93;;;13.40;99.90;;;;;;5034768;28;20502;-76
2021/09/02 01:55:51;;;;;;;2.10;1.73;;;13.40;99.90;;;;;;5034289;28;20598;-77
2021/09/02 01:58:17;;;;;;;2.67;2.50;;;13.50;99.90;;;;;;5034979;28;20171;-77
2021/09/02 02:00:44;;;;;;;5.07;1.33;;;13.50;99.90;;;;;;5035746;28;20480;-76
2021/09/02 02:03:09;;;;;;;2.17;1.80;;;13.50;99.90;;;;;;5035941;28;20172;-76
2021/09/02 02:05:35;;;;;;;3.37;2.20;;;13.60;99.90;;;;;;5041607;28;20410;-77
2021/09/02 02:08:02;;;;;;;3.37;2.23;;;13.60;99.90;;;;;;5036683;28;20172;-76
2021/09/02 02:10:28;;;;;;;0.80;0.67;;;13.60;99.90;;;;;;5034758;28;20804;-76
2021/09/02 02:12:56;;;;;;;2.40;1.23;;;13.60;99.90;;;;;;5035028;28;20437;-76
2021/09/02 02:15:22;;;;;;;1.23;1.13;;;13.70;99.90;;;;;;5038903;28;20438;-76
2021/09/02 02:17:47;;;;;;;1.17;1.07;;;13.70;99.90;;;;;;5035343;28;20445;-76
2021/09/02 02:20:14;;;;;;;6.00;2.70;;;13.70;99.90;;;;;;5034628;28;20430;-76
2021/09/02 02:22:40;;;;;;;3.97;1.63;;;13.80;99.90;;;;;;5032276;28;20179;-77
2021/09/02 02:25:07;;;;;;;1.07;1.00;;;13.90;99.90;;;;;;5034136;28;21021;-76
2021/09/02 02:27:33;;;;;;;6.00;2.97;;;13.90;99.90;;;;;;5033186;28;20414;-76
2021/09/02 02:29:59;;;;;;;0.70;0.70;;;13.90;99.90;;;;;;5034592;28;20430;-76
2021/09/02 02:32:24;;;;;;;2.30;2.10;;;13.90;99.90;;;;;;5034346;28;20176;-77
2021/09/02 02:34:50;;;;;;;1.43;1.03;;;14.00;99.90;;;;;;5034120;28;20171;-76
2021/09/02 02:37:15;;;;;;;0.70;0.50;;;14.00;99.90;;;;;;5034143;28;20179;-76
2021/09/02 02:39:41;;;;;;;1.30;1.10;;;14.00;99.90;;;;;;5032966;28;20199;-77
2021/09/02 02:42:08;;;;;;;1.13;1.00;;;14.10;99.90;;;;;;5034240;28;20252;-76
2021/09/02 02:44:35;;;;;;;1.50;1.40;;;14.10;99.90;;;;;;5033686;28;20187;-77
2021/09/02 02:47:01;;;;;;;1.20;1.10;;;14.10;99.90;;;;;;5032620;28;20497;-76
2021/09/02 02:49:26;;;;;;;2.60;2.40;;;14.20;99.90;;;;;;5032511;28;20517;-76
2021/09/02 02:51:52;;;;;;;2.33;1.80;;;14.20;99.90;;;;;;5032837;28;20607;-77
2021/09/02 02:54:18;;;;;;;2.60;1.97;;;14.20;99.90;;;;;;5034077;28;20452;-76
2021/09/02 02:56:44;;;;;;;2.00;1.90;;;14.20;99.90;;;;;;5033535;28;20179;-75
2021/09/02 02:59:09;;;;;;;1.40;1.07;;;14.30;99.90;;;;;;5034986;28;20426;-76
2021/09/02 03:01:35;;;;;;;3.03;2.80;;;14.30;99.90;;;;;;5032745;28;20175;-76
2021/09/02 03:04:00;;;;;;;5.47;2.07;;;14.30;99.90;;;;;;5033365;28;20194;-76
2021/09/02 03:06:26;;;;;;;2.50;1.50;;;14.30;99.90;;;;;;5033177;28;20194;-76
2021/09/02 03:08:51;;;;;;;5.37;3.07;;;14.40;99.90;;;;;;5033926;28;20197;-77
2021/09/02 03:11:17;;;;;;;7.47;2.10;;;14.40;99.90;;;;;;5032867;28;20164;-77
2021/09/02 03:13:43;;;;;;;1.57;1.47;;;14.40;99.90;;;;;;5033824;28;20556;-76
2021/09/02 03:16:08;;;;;;;2.00;1.90;;;14.40;99.90;;;;;;5035033;28;20178;-78
2021/09/02 03:18:34;;;;;;;2.63;2.43;;;14.40;99.90;;;;;;5040686;28;20274;-78
2021/09/02 03:20:59;;;;;;;0.90;0.80;;;14.40;99.90;;;;;;5040006;28;20311;-76
2021/09/02 03:23:25;;;;;;;2.23;1.70;;;14.40;99.90;;;;;;5033489;28;20310;-77
2021/09/02 03:25:51;;;;;;;4.00;3.07;;;14.40;99.90;;;;;;5033160;28;20167;-76
2021/09/02 03:28:16;;;;;;;2.80;1.77;;;14.40;99.90;;;;;;5035302;28;20237;-77
2021/09/02 03:30:42;;;;;;;2.57;2.20;;;14.40;99.90;;;;;;5039220;28;20172;-78
2021/09/02 03:33:07;;;;;;;3.87;3.57;;;14.50;99.90;;;;;;5039802;28;20164;-77
2021/09/02 03:35:33;;;;;;;5.90;1.90;;;14.50;99.90;;;;;;5039843;28;20198;-78
2021/09/02 03:37:58;;;;;;;1.30;1.20;;;14.50;99.90;;;;;;5039096;28;20222;-77
2021/09/02 03:40:24;;;;;;;3.13;1.67;;;14.50;99.90;;;;;;5038310;28;20180;-78
2021/09/02 03:42:49;;;;;;;1.33;1.07;;;14.50;99.90;;;;;;5019100;28;20198;-76
2021/09/02 03:45:15;;;;;;;3.93;1.80;;;14.50;99.90;;;;;;5015877;28;20275;-76
2021/09/02 03:47:49;;;;;;;3.13;2.93;;;14.50;99.90;;;;;;5013028;28;20255;-77
2021/09/02 03:50:15;;;;;;;2.07;1.97;;;14.50;99.90;;;;;;5013061;28;20187;-76
2021/09/02 03:52:41;;;;;;;3.73;3.43;;;14.50;99.90;;;;;;5011957;28;20407;-77
2021/09/02 03:55:07;;;;;;;1.07;0.80;;;14.40;99.90;;;;;;5012582;28;20789;-76
2021/09/02 03:57:33;;;;;;;3.90;1.27;;;14.40;99.90;;;;;;5012844;28;20180;-77
2021/09/02 03:59:58;;;;;;;1.67;1.50;;;14.40;99.90;;;;;;5012787;28;20440;-76
2021/09/02 04:02:24;;;;;;;10.80;8.90;;;14.40;99.90;;;;;;5012721;28;20187;-76
2021/09/02 04:04:50;;;;;;;9.60;4.43;;;14.40;99.90;;;;;;5012711;28;20610;-76
2021/09/02 04:07:15;;;;;;;1.93;1.30;;;14.40;99.90;;;;;;5012789;28;20171;-76
2021/09/02 04:09:41;;;;;;;4.83;2.03;;;14.30;99.90;;;;;;5012632;28;20423;-76
2021/09/02 04:12:07;;;;;;;1.20;1.10;;;14.30;99.90;;;;;;5012584;28;20160;-75
2021/09/02 04:14:32;;;;;;;4.33;3.00;;;14.30;99.90;;;;;;5012490;28;20582;-76
2021/09/02 04:16:58;;;;;;;1.17;1.07;;;14.20;99.90;;;;;;5012601;28;20206;-77
2021/09/02 04:19:24;;;;;;;1.40;1.17;;;14.20;99.90;;;;;;5012453;28;20276;-75
2021/09/02 04:21:50;;;;;;;2.00;1.90;;;14.20;99.90;;;;;;5012383;28;20208;-75
2021/09/02 04:24:15;;;;;;;2.40;2.20;;;14.10;99.90;;;;;;5012355;28;20226;-76
2021/09/02 04:26:41;;;;;;;2.03;1.80;;;14.10;99.90;;;;;;5015168;28;20403;-77
2021/09/02 04:29:07;;;;;;;3.13;2.93;;;14.10;99.90;;;;;;5015594;28;20184;-77
2021/09/02 04:31:32;;;;;;;4.00;1.80;;;14.10;99.90;;;;;;5012326;28;20168;-75
2021/09/02 04:33:58;;;;;;;2.30;2.10;;;14.00;99.90;;;;;;5012312;28;20165;-76
2021/09/02 04:36:23;;;;;;;2.03;1.40;;;14.00;99.90;;;;;;5012065;28;20747;-76
2021/09/02 04:38:49;;;;;;;1.40;1.30;;;14.00;99.90;;;;;;5013111;28;20665;-77
2021/09/02 04:41:14;;;;;;;3.73;1.50;;;14.00;99.90;;;;;;5015959;28;20165;-77
2021/09/02 04:43:40;;;;;;;3.13;2.40;;;14.00;99.90;;;;;;5016488;28;20551;-77
2021/09/02 04:46:05;;;;;;;1.07;0.80;;;13.90;99.90;;;;;;5016852;28;20518;-76
2021/09/02 04:48:31;;;;;;;5.90;1.57;;;13.90;99.90;;;;;;5015182;28;20591;-76
2021/09/02 04:50:56;;;;;;;3.00;1.70;;;13.90;99.90;;;;;;5016272;28;20183;-76
2021/09/02 04:53:22;;;;;;;1.57;1.47;;;13.80;99.90;;;;;;5016266;28;20168;-77
2021/09/02 04:55:47;;;;;;;5.93;3.10;;;13.80;99.90;;;;;;5015718;28;20191;-76
2021/09/02 04:58:14;;;;;;;2.73;1.93;;;13.90;99.90;;;;;;5014836;28;20234;-76
2021/09/02 05:00:41;;;;;;;1.37;0.70;;;13.80;99.90;;;;;;5017434;28;20172;-77
2021/09/02 05:03:07;;;;;;;6.80;2.17;;;13.80;99.90;;;;;;5019598;28;20774;-77
2021/09/02 05:05:33;;;;;;;4.40;1.20;;;13.70;99.90;;;;;;5018816;28;20450;-77
2021/09/02 05:07:59;;;;;;;3.90;3.70;;;13.70;99.90;;;;;;5019315;28;20403;-77
2021/09/02 05:10:26;;;;;;;0.80;0.77;;;13.60;99.90;;;;;;5019374;28;20415;-77
2021/09/02 05:12:51;;;;;;;6.47;1.87;;;13.60;99.90;;;;;;5018829;28;20410;-75
2021/09/02 05:15:18;;;;;;;0.70;0.57;;;13.60;99.90;;;;;;5014438;28;20419;-76
2021/09/02 05:17:47;;;;;;;1.43;1.33;;;13.60;99.90;;;;;;5015775;28;20169;-76
2021/09/02 05:20:14;;;;;;;7.53;3.27;;;13.60;99.90;;;;;;5015739;28;20437;-76
2021/09/02 05:22:40;;;;;;;2.83;2.33;;;13.60;99.90;;;;;;5015710;28;20459;-76
2021/09/02 05:25:07;;;;;;;0.90;0.87;;;13.60;99.90;;;;;;5015476;28;20450;-77
2021/09/02 05:27:33;;;;;;;1.37;1.27;;;13.60;99.90;;;;;;5015713;28;20413;-76
2021/09/02 05:29:59;;;;;;;4.93;1.53;;;13.50;99.90;;;;;;5015475;28;20888;-77
2021/09/02 05:32:24;;;;;;;1.40;1.27;;;13.50;99.90;;;;;;5015464;28;20172;-76
2021/09/02 05:34:50;;;;;;;2.23;2.03;;;13.60;99.90;;;;;;5015226;28;20450;-78
2021/09/02 05:37:15;;;;;;;3.13;1.43;;;13.50;99.90;;;;;;5015326;28;20251;-76
2021/09/02 05:39:41;;;;;;;9.17;2.53;;;13.50;99.90;;;;;;5022078;28;20192;-77
2021/09/02 05:42:07;;;;;;;1.07;0.87;;;13.50;99.90;;;;;;5022788;28;20168;-77
2021/09/02 05:44:32;;;;;;;3.40;1.37;;;13.60;99.90;;;;;;5016895;28;20200;-76
2021/09/02 05:46:58;;;;;;;2.80;2.70;;;13.60;99.90;;;;;;5016646;28;20637;-76
2021/09/02 05:49:23;;;;;;;1.17;1.00;;;13.50;99.90;;;;;;5017165;28;20715;-76
2021/09/02 05:51:49;;;;;;;1.30;1.17;;;13.50;99.90;;;;;;5014433;28;20164;-76
2021/09/02 05:54:16;;;;;;;2.87;2.67;;;13.50;99.90;;;;;;5015563;28;20630;-77
2021/09/02 05:56:41;;;;;;;1.50;0.83;;;13.60;99.90;;;;;;5016471;28;20187;-77
2021/09/02 05:59:07;;;;;;;14.07;1.60;;;13.50;99.90;;;;;;5020870;28;20458;-76
2021/09/02 06:01:32;;;;;;;3.43;1.50;;;13.50;99.90;;;;;;5022289;28;20179;-77
2021/09/02 06:03:58;;;;;;;0.87;0.87;;;13.60;99.90;;;;;;5020736;28;20196;-77
2021/09/02 06:06:23;;;;;;;1.03;0.93;;;13.80;99.90;;;;;;5020624;28;20543;-77
2021/09/02 06:08:49;;;;;;;3.60;3.40;;;13.90;99.90;;;;;;5021330;28;20198;-77
2021/09/02 06:11:14;;;;;;;4.00;2.37;;;14.10;99.90;;;;;;5021327;28;20184;-78
2021/09/02 06:13:40;;;;;;;1.70;1.60;;;14.20;99.90;;;;;;5020830;28;20179;-77
2021/09/02 06:16:06;;;;;;;2.67;2.47;;;14.30;99.90;;;;;;5020750;28;20226;-78
2021/09/02 06:18:31;;;;;;;1.47;1.30;;;14.40;99.90;;;;;;5021274;28;20192;-77
2021/09/02 06:20:57;;;;;;;5.27;1.47;;;14.60;99.90;;;;;;5022053;28;20242;-78
2021/09/02 06:23:23;;;;;;;2.33;2.00;;;14.70;99.90;;;;;;5022003;28;20203;-78
2021/09/02 06:25:48;;;;;;;2.30;1.90;;;14.80;99.90;;;;;;5022007;28;20181;-78
2021/09/02 06:28:14;;;;;;;2.43;1.40;;;15.00;99.90;;;;;;5021950;28;20267;-79
2021/09/02 06:30:40;;;;;;;1.43;1.33;;;15.40;99.90;;;;;;5022463;28;20188;-77
2021/09/02 06:33:05;;;;;;;8.63;1.47;;;16.00;99.90;;;;;;5020792;28;20177;-77
2021/09/02 06:35:31;;;;;;;1.53;1.13;;;16.50;99.90;;;;;;5021446;28;20183;-79
2021/09/02 06:37:57;;;;;;;2.80;2.53;;;16.90;99.90;;;;;;5021692;28;20184;-79
2021/09/02 06:40:22;;;;;;;1.50;1.43;;;17.30;99.90;;;;;;5021422;28;20196;-78
2021/09/02 06:42:48;;;;;;;6.60;5.67;;;17.80;99.90;;;;;;5022582;28;20258;-79
2021/09/02 06:45:14;;;;;;;1.87;1.67;;;18.10;99.90;;;;;;5022630;28;20478;-78
2021/09/02 06:47:43;;;;;;;2.20;1.50;;;18.40;99.90;;;;;;5021178;28;20176;-79
2021/09/02 06:50:11;;;;;;;1.60;0.90;;;18.80;99.90;;;;;;5022449;28;20204;-78
2021/09/02 06:52:36;;;;;;;1.30;1.10;;;19.00;99.90;;;;;;5020997;28;20477;-78
2021/09/02 06:55:03;;;;;;;2.07;1.57;;;19.10;99.90;;;;;;5020484;28;20455;-77
2021/09/02 06:57:29;;;;;;;3.97;3.77;;;19.00;99.90;;;;;;5021060;28;20207;-79
2021/09/02 06:59:55;;;;;;;4.30;2.60;;;18.70;99.90;;;;;;5021142;28;20451;-77
2021/09/02 07:02:21;;;;;;;5.00;3.97;;;18.60;99.90;;;;;;5021364;28;20172;-78
2021/09/02 07:04:47;;;;;;;2.70;1.80;;;18.40;99.90;;;;;;5019826;28;20549;-78
2021/09/02 07:07:13;;;;;;;3.03;2.83;;;18.20;99.90;;;;;;5020497;28;20175;-78
2021/09/02 07:09:38;;;;;;;2.77;2.40;;;18.10;99.90;;;;;;5019325;28;20219;-79
2021/09/02 07:12:04;;;;;;;6.87;3.07;;;18.10;99.90;;;;;;5021026;28;20176;-79
2021/09/02 07:14:31;;;;;;;5.00;3.10;;;18.20;99.90;;;;;;5021561;28;20241;-79
2021/09/02 07:16:56;;;;;;;4.10;3.80;;;18.50;99.90;;;;;;5021665;28;20183;-79
2021/09/02 07:19:22;;;;;;;2.57;2.37;;;18.70;99.90;;;;;;5021796;28;20435;-79
2021/09/02 07:21:48;;;;;;;7.13;4.03;;;18.80;99.90;;;;;;5022213;28;20233;-78
2021/09/02 07:24:13;;;;;;;10.73;5.33;;;19.10;99.90;;;;;;5022082;28;20192;-79
2021/09/02 07:26:39;;;;;;;5.37;4.80;;;19.30;99.90;;;;;;5022096;28;20168;-79
2021/09/02 07:29:07;;;;;;;10.43;3.03;;;19.60;99.90;;;;;;5022070;28;20256;-80
2021/09/02 07:31:33;;;;;;;2.53;1.60;;;20.00;99.90;;;;;;5021040;28;20169;-79
2021/09/02 07:33:59;;;;;;;5.87;3.00;;;20.40;99.90;;;;;;5021341;28;20622;-79
2021/09/02 07:36:24;;;;;;;3.03;2.03;;;20.60;99.90;;;;;;5019220;28;20407;-79
2021/09/02 07:38:50;;;;;;;4.33;3.93;;;20.50;99.90;;;;;;5021401;28;20204;-78
2021/09/02 07:41:16;;;;;;;2.17;1.43;;;20.50;99.90;;;;;;5021904;28;20199;-78
2021/09/02 07:43:42;;;;;;;2.60;2.10;;;20.30;99.90;;;;;;5019991;28;20199;-77
2021/09/02 07:46:09;;;;;;;10.57;4.10;;;20.20;99.90;;;;;;5019978;28;20407;-78
2021/09/02 07:48:35;;;;;;;5.40;2.17;;;20.00;99.90;;;;;;5019178;28;20466;-79
2021/09/02 07:51:01;;;;;;;2.10;1.43;;;20.00;99.90;;;;;;5019192;28;20419;-79
2021/09/02 07:53:27;;;;;;;1.83;1.73;;;20.00;99.90;;;;;;5019843;28;20403;-79
2021/09/02 07:55:52;;;;;;;7.40;2.90;;;19.90;99.90;;;;;;5018814;28;20190;-79
2021/09/02 07:58:18;;;;;;;5.03;2.70;;;20.10;99.90;;;;;;5019336;28;20198;-77
2021/09/02 08:00:43;;;;;;;5.57;1.93;;;20.10;99.90;;;;;;5019260;28;20182;-79
2021/09/02 08:03:09;;;;;;;2.30;1.63;;;20.20;99.90;;;;;;5019042;28;20179;-79
2021/09/02 08:05:34;;;;;;;9.10;3.83;;;20.10;99.90;;;;;;5018533;28;20200;-78
2021/09/02 08:08:00;;;;;;;2.50;2.10;;;20.00;99.90;;;;;;5021036;28;20255;-78
2021/09/02 08:10:26;;;;;;;5.10;3.17;;;20.10;99.90;;;;;;5020089;28;20191;-79
2021/09/02 08:12:54;;;;;;;4.30;3.30;;;20.20;99.90;;;;;;5019897;28;20746;-78
2021/09/02 08:15:20;;;;;;;3.63;2.23;;;20.30;99.90;;;;;;5019855;28;20416;-79
2021/09/02 08:17:47;;;;;;;6.07;2.00;;;20.50;99.90;;;;;;5020536;28;20481;-79
2021/09/02 08:20:13;;;;;;;4.20;3.50;;;20.60;99.90;;;;;;5020346;28;20431;-78
2021/09/02 08:22:39;;;;;;;3.30;2.60;;;20.90;99.90;;;;;;5020592;28;20403;-78
2021/09/02 08:25:07;;;;;;;4.97;2.50;;;21.30;99.90;;;;;;5019609;28;20485;-78
2021/09/02 08:27:33;;;;;;;1.87;1.67;;;21.60;99.90;;;;;;5019791;28;20495;-78
2021/09/02 08:29:59;;;;;;;5.30;3.47;;;21.80;99.90;;;;;;5021087;28;21002;-79
2021/09/02 08:32:25;;;;;;;5.23;4.87;;;22.40;99.90;;;;;;5019397;28;20195;-79
2021/09/02 08:34:51;;;;;;;3.70;2.93;;;22.80;99.90;;;;;;5020028;28;20407;-76
2021/09/02 08:37:17;;;;;;;2.10;1.90;;;23.30;99.90;;;;;;5016432;28;20415;-75
2021/09/02 08:39:42;;;;;;;3.77;2.97;;;23.80;99.90;;;;;;5017292;28;20192;-77
2021/09/02 08:42:08;;;;;;;8.00;2.67;;;24.20;99.90;;;;;;5018128;28;20609;-76
2021/09/02 08:44:34;;;;;;;5.33;3.47;;;24.60;99.90;;;;;;5017456;28;20230;-78
2021/09/02 08:47:00;;;;;;;2.17;1.70;;;24.50;99.90;;;;;;5017614;28;20498;-77
2021/09/02 08:49:28;;;;;;;3.23;2.60;;;25.10;99.90;;;;;;5017184;28;20859;-77
2021/09/02 08:51:53;;;;;;;2.17;2.00;;;25.60;99.90;;;;;;5016292;28;20422;-76
2021/09/02 08:54:20;;;;;;;5.23;3.30;;;25.70;99.90;;;;;;5017747;28;20411;-77
2021/09/02 08:56:46;;;;;;;5.43;2.57;;;25.80;99.90;;;;;;5016267;28;20195;-77
2021/09/02 08:59:11;;;;;;;6.20;5.80;;;26.00;99.90;;;;;;5015957;28;20952;-77
2021/09/02 09:01:37;;;;;;;7.33;2.60;;;26.40;99.90;;;;;;5016535;28;20177;-77
2021/09/02 09:04:11;;;;;;;8.17;4.53;;;26.50;99.90;;;;;;5015940;28;20200;-77
2021/09/02 09:06:37;;;;;;;5.33;4.00;;;26.80;99.90;;;;;;5015126;28;20180;-77
2021/09/02 09:09:13;;;;;;;8.23;3.30;;;26.90;99.90;;;;;;5016538;28;20809;-77
2021/09/02 09:11:47;;;;;;;5.63;3.63;;;26.90;99.90;;;;;;5015594;28;20828;-71
2021/09/02 09:14:17;;;;;;;4.63;3.63;;;27.00;99.90;;;;;;5010806;28;20419;-73
2021/09/02 09:16:54;;;;;;;6.33;2.90;;;27.30;99.90;;;;;;5010290;28;20924;-74
2021/09/02 09:19:52;;;;;;;6.37;3.93;;;27.70;99.90;;;;;;5011794;28;20488;-73
2021/09/02 09:22:20;;;;;;;5.63;3.53;;;28.20;99.90;;;;;;5011861;28;20443;-73
2021/09/02 09:24:54;;;;;;;2.67;2.40;;;28.30;99.90;;;;;;5010385;28;20871;-73
2021/09/02 09:27:22;;;;;;;4.23;3.40;;;28.50;99.90;;;;;;5011543;28;20438;-76
2021/09/02 09:30:10;;;;;;;6.20;3.97;;;28.70;99.90;;;;;;5012125;28;20423;-75
2021/09/02 09:32:40;;;;;;;3.10;2.30;;;28.80;99.50;;;;;;5014190;28;20742;-76
2021/09/02 09:35:08;;;;;;;7.23;3.10;;;28.90;96.30;;;;;;5015347;28;20411;-77
2021/09/02 09:37:34;;;;;;;9.23;3.50;;;28.80;95.00;;;;;;5015467;28;20506;-76
2021/09/02 09:40:17;;;;;;;6.50;3.87;;;28.70;95.30;;;;;;5014083;28;20518;-75
2021/09/02 09:43:14;;;;;;;4.27;3.90;;;28.50;96.60;;;;;;5014149;28;20180;-76
2021/09/02 09:45:40;;;;;;;8.60;6.70;;;29.20;96.50;;;;;;5009526;28;20846;-76
2021/09/02 09:48:38;;;;;;;5.00;3.80;;;29.30;94.30;;;;;;5013698;28;20420;-76
2021/09/02 09:51:07;;;;;;;7.30;2.83;;;29.60;92.30;;;;;;5015160;28;20477;-75
2021/09/02 09:53:33;;;;;;;2.63;2.43;;;29.40;91.40;;;;;;5016440;28;20412;-75
2021/09/02 09:55:59;;;;;;;3.30;1.80;;;29.50;92.60;;;;;;5016857;28;20932;-78
2021/09/02 09:58:27;;;;;;;2.50;1.53;;;29.80;91.90;;;;;;5016394;28;20447;-78
2021/09/02 10:00:54;;;;;;;7.50;3.83;;;29.90;92.80;;;;;;5017434;28;20215;-76
2021/09/02 10:03:21;;;;;;;5.00;3.13;;;30.20;90.90;;;;;;5018129;28;20435;-78
2021/09/02 10:09:19;;;;;;;2.60;2.07;;;30.40;87.10;;;;;;5014992;28;20446;-78
2021/09/02 10:11:46;;;;;;;3.57;3.27;;;30.30;83.70;;;;;;5022641;28;20411;-77
2021/09/02 10:14:11;;;;;;;2.90;1.70;;;30.40;83.00;;;;;;5020526;28;20207;-78
2021/09/02 10:16:39;;;;;;;2.30;2.10;;;30.70;82.70;;;;;;5020797;28;20411;-78
2021/09/02 10:19:05;;;;;;;2.70;1.50;;;31.00;81.30;;;;;;5019092;28;20581;-78
2021/09/02 10:21:30;;;;;;;3.53;1.70;;;31.20;80.20;;;;;;5019150;28;20423;-78
2021/09/02 10:24:29;;;;;;;4.70;2.57;;;31.30;79.90;;;;;;5018821;28;21062;-78
2021/09/02 10:26:54;;;;;;;6.30;2.90;;;31.70;75.20;;;;;;5018526;28;20342;-77
2021/09/02 10:29:39;;;;;;;4.40;3.63;;;31.80;74.80;;;;;;5018081;28;20471;-77
2021/09/02 10:32:23;;;;;;;3.23;2.90;;;32.20;74.30;;;;;;5018278;28;20660;-78
2021/09/02 10:34:53;;;;;;;2.70;2.40;;;32.40;74.60;;;;;;5017148;28;20408;-78
2021/09/02 10:37:34;;;;;;;2.20;2.10;;;32.50;72.80;;;;;;5016830;28;20431;-78
2021/09/02 10:40:01;;;;;;;4.73;3.33;;;32.60;71.40;;;;;;5016766;28;20987;-77
2021/09/02 10:42:51;;;;;;;5.33;3.90;;;32.80;71.60;;;;;;5016987;28;20478;-77
2021/09/02 10:45:25;;;;;;;2.87;2.00;;;32.60;68.50;;;;;;5016233;28;20510;-78
2021/09/02 10:48:00;;;;;;;3.17;2.87;;;32.50;69.70;;;;;;5015996;28;20423;-77
2021/09/02 10:50:28;;;;;;;3.60;2.80;;;32.70;70.30;;;;;;5017151;28;20402;-77
2021/09/02 10:53:09;;;;;;;4.50;2.30;;;32.80;66.50;;;;;;5016903;28;20415;-78
2021/09/02 10:55:37;;;;;;;2.27;1.77;;;32.80;67.30;;;;;;5016195;28;20462;-76
2021/09/02 10:58:07;;;;;;;1.83;1.70;;;32.80;67.30;;;;;;5016667;28;20477;-77
2021/09/02 11:00:38;;;;;;;3.73;2.27;;;32.70;65.80;;;;;;5016905;28;20411;-77
2021/09/02 11:03:14;;;;;;;2.43;1.97;;;32.80;67.40;;;;;;5016144;28;20458;-78
2021/09/02 11:05:42;;;;;;;1.57;1.23;;;32.70;66.00;;;;;;5017000;28;20454;-78
2021/09/02 11:08:08;;;;;;;1.93;1.80;;;33.00;66.50;;;;;;5016001;28;20867;-78
2021/09/02 11:10:35;;;;;;;2.00;1.60;;;32.80;62.90;;;;;;5017555;28;20513;-78
2021/09/02 11:13:04;;;;;;;1.73;1.40;;;32.90;66.30;;;;;;5017745;28;20815;-77
2021/09/02 11:15:30;;;;;;;1.30;1.20;;;32.90;61.10;;;;;;5016804;28;20407;-77
2021/09/02 11:17:58;;;;;;;1.30;1.13;;;33.00;63.60;;;;;;5017118;28;20407;-77
2021/09/02 11:20:27;;;;;;;1.80;1.20;;;33.00;60.80;;;;;;5015159;28;20814;-77
2021/09/02 11:23:10;;;;;;;2.93;1.40;;;33.00;60.40;;;;;;5014381;28;20786;-77
2021/09/02 11:25:47;;;;;;;4.63;1.73;;;32.80;59.80;;;;;;5015866;28;20455;-77
2021/09/02 11:28:13;;;;;;;1.77;1.67;;;32.60;59.80;;;;;;5014571;28;20415;-77
2021/09/02 11:30:39;;;;;;;1.63;1.43;;;32.90;62.40;;;;;;5016241;28;20438;-76
2021/09/02 11:33:06;;;;;;;1.80;1.70;;;33.30;62.60;;;;;;5015428;28;20411;-78
2021/09/02 11:35:32;;;;;;;2.23;1.47;;;33.40;61.80;;;;;;5016978;28;20251;-77
2021/09/02 11:37:58;;;;;;;1.23;1.13;;;33.30;58.40;;;;;;5017608;28;20474;-77
2021/09/02 11:40:27;;;;;;;1.53;1.40;;;33.40;60.10;;;;;;5014531;28;20439;-76
2021/09/02 11:42:53;;;;;;;1.80;1.70;;;33.40;60.00;;;;;;5014804;28;20540;-77
2021/09/02 11:45:21;;;;;;;1.83;1.53;;;33.30;57.50;;;;;;5015642;28;20466;-78
2021/09/02 11:47:49;;;;;;;1.70;1.60;;;33.70;60.90;;;;;;5014399;28;20439;-78
2021/09/02 11:50:16;;;;;;;4.00;1.80;;;33.60;59.60;;;;;;5016167;28;20558;-78
2021/09/02 11:52:47;;;;;;;1.87;1.30;;;33.30;57.40;;;;;;5017842;28;20431;-77
2021/09/02 11:55:15;;;;;;;2.00;1.47;;;33.40;59.40;;;;;;5016048;28;20485;-77
2021/09/02 11:57:40;;;;;;;1.50;1.40;;;33.50;58.70;;;;;;5015346;28;20419;-77
2021/09/02 12:00:07;;;;;;;2.57;1.57;;;33.80;59.60;;;;;;5018951;28;21004;-77
2021/09/02 12:02:32;;;;;;;1.47;1.37;;;33.90;59.30;;;;;;5015905;28;20176;-77
2021/09/02 12:04:58;;;;;;;4.20;1.07;;;33.80;57.10;;;;;;5016972;28;20987;-76
2021/09/02 12:07:24;;;;;;;1.70;1.50;;;33.80;58.60;;;;;;5013797;28;20222;-76
2021/09/02 12:09:50;;;;;;;1.77;1.67;;;33.80;58.30;;;;;;5013496;28;20428;-75
2021/09/02 12:12:32;;;;;;;3.87;2.00;;;33.60;58.80;;;;;;5012581;28;20853;-76
2021/09/02 12:14:58;;;;;;;3.30;1.37;;;33.70;58.30;;;;;;5012224;28;20533;-75
2021/09/02 12:17:32;;;;;;;4.50;1.53;;;33.50;57.30;;;;;;5012636;28;20419;-76
2021/09/02 12:19:59;;;;;;;1.87;1.70;;;33.50;56.60;;;;;;5012403;28;21079;-74
2021/09/02 12:22:35;;;;;;;2.03;1.93;;;33.50;58.20;;;;;;5011111;28;20419;-74
2021/09/02 12:25:13;;;;;;;1.73;1.63;;;33.50;56.70;;;;;;5012098;28;20462;-74
2021/09/02 12:27:46;;;;;;;3.37;2.80;;;33.40;55.40;;;;;;5011131;28;20411;-75
2021/09/02 12:30:12;;;;;;;1.10;1.00;;;33.20;59.10;;;;;;5012130;28;20426;-74
2021/09/02 12:32:38;;;;;;;1.07;0.80;;;33.20;58.20;;;;;;5012398;28;20427;-74
2021/09/02 12:35:38;;;;;;;1.40;1.30;;;33.30;57.50;;;;;;5012013;28;20962;-75
2021/09/02 12:38:03;;;;;;;1.80;1.37;;;33.50;58.10;;;;;;5012282;28;20251;-75
2021/09/02 12:40:28;;;;;;;1.83;1.63;;;33.50;56.10;;;;;;5016824;28;20501;-78
2021/09/02 12:43:14;;;;;;;1.77;1.20;;;33.60;56.20;;;;;;5012353;28;20259;-75
2021/09/02 12:45:57;;;;;;;2.93;1.47;;;33.10;54.50;;;;;;5011925;28;20196;-74
2021/09/02 12:48:23;;;;;;;2.33;1.60;;;33.30;56.90;;;;;;5010863;28;20419;-74
2021/09/02 12:50:49;;;;;;;1.20;1.10;;;33.50;56.40;;;;;;5012079;28;20877;-75